Time;durP1;ratioP1;P1;durP2;ratioP2;P2;SDS_P1;SDS_P2;PMS_P1;PMS_P2;Temp;Humidity;BMP_temperature;BMP_pressure;BME280_temperature;BME280_humidity;BME280_pressure;Samples;Min_cycle;Max_cycle;Signal;HPM_P1;HPM_P2
2021/10/20 00:02:01;;;;;;;38.42;17.13;;;;;;;13.17;100.00;100935.94;4890626;28;20038;-85
2021/10/20 00:04:27;;;;;;;38.70;16.65;;;;;;;13.23;100.00;100935.59;4897001;28;20126;-85
2021/10/20 00:06:53;;;;;;;43.55;16.50;;;14.50;99.90;;;13.24;100.00;100926.72;4874572;28;20041;-85
2021/10/20 00:09:28;;;;;;;29.85;15.77;;;;;;;13.25;100.00;100910.78;4859612;28;20085;-85
2021/10/20 00:11:57;;;;;;;36.93;16.43;;;14.50;99.90;;;13.28;100.00;100909.75;4905232;28;20140;-85
2021/10/20 00:14:32;;;;;;;32.10;15.43;;;;;;;13.26;100.00;100925.72;4902803;28;20465;-84
2021/10/20 00:17:00;;;;;;;33.63;15.35;;;;;;;13.31;100.00;100918.41;4909207;28;20499;-87
2021/10/20 00:19:35;;;;;;;34.70;15.90;;;;;;;13.37;100.00;100900.47;4906829;28;20088;-85
2021/10/20 00:22:01;;;;;;;32.50;15.77;;;14.60;99.90;;;13.34;100.00;100899.72;4894428;28;20051;-85
2021/10/20 00:24:27;;;;;;;32.33;15.63;;;14.60;99.90;;;13.33;100.00;100903.31;4892476;28;20026;-84
2021/10/20 00:26:53;;;;;;;31.02;16.08;;;14.60;99.90;;;13.34;100.00;100906.81;4906631;28;20029;-85
2021/10/20 00:29:27;;;;;;;29.60;14.35;;;;;;;13.36;100.00;100890.84;4884294;28;20060;-85
2021/10/20 00:31:53;;;;;;;29.35;14.38;;;;;;;13.36;100.00;100890.84;4911547;28;20034;-84
2021/10/20 00:34:19;;;;;;;28.58;14.63;;;14.60;99.90;;;13.33;100.00;100878.66;4862929;28;20068;-84
2021/10/20 00:36:45;;;;;;;35.88;13.85;;;14.60;99.90;;;13.32;100.00;100869.84;4917683;28;20043;-84
2021/10/20 00:39:16;;;;;;;30.40;15.05;;;14.60;99.90;;;13.32;100.00;100867.22;4912685;28;20039;-84
2021/10/20 00:41:42;;;;;;;28.88;14.60;;;14.60;99.90;;;13.34;100.00;100870.63;4921516;28;20432;-87
2021/10/20 00:44:08;;;;;;;35.20;15.48;;;14.80;99.90;;;13.33;100.00;100861.00;4882645;28;20034;-85
2021/10/20 00:46:34;;;;;;;30.58;14.77;;;14.60;99.90;;;13.34;100.00;100849.47;4889858;28;20055;-85
2021/10/20 00:49:00;;;;;;;25.88;14.57;;;14.60;99.90;;;13.28;100.00;100833.06;4878141;28;20037;-84
2021/10/20 00:51:29;;;;;;;26.45;13.55;;;14.50;99.90;;;13.23;100.00;100822.75;4896649;28;20491;-84
2021/10/20 00:53:58;;;;;;;30.77;14.98;;;;;;;13.26;100.00;100830.53;4886105;28;20121;-84
2021/10/20 00:58:50;;;;;;;29.45;14.45;;;14.60;99.90;;;13.35;100.00;100823.91;4908997;28;20033;-84
2021/10/20 01:01:16;;;;;;;34.58;14.07;;;14.70;99.90;;;13.38;100.00;100822.84;4872672;28;20035;-85
2021/10/20 01:03:52;;;;;;;28.98;14.25;;;14.60;99.90;;;13.37;100.00;100826.44;4880012;28;20034;-84
2021/10/20 01:06:18;;;;;;;27.13;14.60;;;14.60;99.90;;;13.30;100.00;100802.13;4855888;28;20066;-84
2021/10/20 01:08:45;;;;;;;27.38;14.20;;;14.60;99.90;;;13.33;100.00;100802.81;4835843;28;20038;-85
2021/10/20 01:11:15;;;;;;;26.17;13.18;;;;;;;13.39;100.00;100806.03;4864695;28;20070;-86
2021/10/20 01:13:45;;;;;;;24.75;13.70;;;14.70;99.90;;;13.43;100.00;100932.72;4910864;28;20479;-86
2021/10/20 01:16:11;;;;;;;24.60;13.50;;;14.70;99.90;;;13.44;100.00;101579.91;4933215;28;20068;-83
2021/10/20 01:18:37;;;;;;;27.70;12.98;;;14.70;99.90;;;13.44;100.00;101383.28;4949731;28;20041;-83
2021/10/20 01:21:07;;;;;;;23.27;13.27;;;;;;;13.39;100.00;101469.94;4870901;28;20329;-85
2021/10/20 01:23:35;;;;;;;20.60;12.23;;;;;;;13.40;100.00;101506.06;4893948;28;20043;-85
2021/10/20 01:26:01;;;;;;;24.23;13.25;;;14.70;99.90;;;13.45;100.00;102448.59;4882750;28;20051;-84
2021/10/20 01:28:27;;;;;;;24.70;12.40;;;14.80;99.90;;;13.50;100.00;101586.72;4899136;28;20090;-84
2021/10/20 01:30:52;;;;;;;25.05;11.40;;;14.80;99.90;;;13.53;100.00;101425.19;4889030;28;20118;-84
2021/10/20 01:33:26;;;;;;;25.67;11.75;;;14.70;99.90;;;13.48;100.00;101326.66;4861122;28;20110;-88
2021/10/20 01:35:52;;;;;;;22.30;11.82;;;;;;;13.50;100.00;101277.19;4876580;28;20048;-85
2021/10/20 01:38:18;;;;;;;23.98;11.18;;;14.80;99.90;;;13.48;100.00;101219.06;4918194;28;20064;-84
2021/10/20 01:40:44;;;;;;;26.10;11.15;;;14.80;99.90;;;13.46;100.00;101162.72;4885398;28;20042;-84
2021/10/20 01:43:15;;;;;;;23.35;11.25;;;14.70;99.90;;;13.49;100.00;101153.75;4884041;28;20073;-84
2021/10/20 01:45:43;;;;;;;21.02;11.57;;;;;;;13.51;100.00;101009.03;4890407;28;20035;-83
2021/10/20 01:48:09;;;;;;;21.35;11.70;;;14.80;99.90;;;13.53;100.00;100941.88;4919968;28;20038;-83
2021/10/20 01:50:35;;;;;;;21.48;10.90;;;14.80;99.90;;;13.52;100.00;100895.22;4871001;28;20550;-84
2021/10/20 01:53:01;;;;;;;21.73;12.38;;;14.80;99.90;;;13.55;100.00;100867.72;4862536;28;20041;-83
2021/10/20 01:55:32;;;;;;;25.67;12.02;;;14.80;99.90;;;13.54;100.00;100848.34;4907761;28;20042;-83
2021/10/20 01:57:58;;;;;;;23.48;12.10;;;;;;;13.53;100.00;100859.88;4880888;28;20042;-87
2021/10/20 02:00:24;;;;;;;23.02;11.93;;;14.80;99.90;;;13.54;100.00;100821.03;4910355;28;20481;-83
2021/10/20 02:02:50;;;;;;;25.13;12.35;;;14.90;99.90;;;13.62;100.00;100805.56;4890523;28;20073;-83
2021/10/20 02:05:16;;;;;;;23.00;11.40;;;14.90;99.90;;;13.64;100.00;100798.41;4896830;28;20126;-84
2021/10/20 02:07:47;;;;;;;25.38;12.18;;;14.90;99.90;;;13.67;100.00;100800.00;4872999;28;20034;-84
2021/10/20 02:10:15;;;;;;;28.67;13.20;;;;;;;13.71;100.00;100810.34;4915598;28;20426;-84
2021/10/20 02:12:43;;;;;;;22.25;11.85;;;;;;;13.79;100.00;100774.63;4948846;28;20037;-85
2021/10/20 02:15:10;;;;;;;21.23;11.60;;;15.00;99.90;;;13.79;100.00;100764.06;4889819;28;20037;-84
2021/10/20 02:17:44;;;;;;;20.48;11.70;;;15.00;99.90;;;13.80;100.00;100758.69;4891863;28;20093;-84
2021/10/20 02:20:14;;;;;;;19.83;10.57;;;15.00;99.90;;;13.84;100.00;100746.94;4896093;28;20037;-84
2021/10/20 02:22:45;;;;;;;21.20;11.45;;;15.10;99.90;;;13.86;100.00;100749.50;4917849;28;20042;-85
2021/10/20 02:25:12;;;;;;;24.70;11.10;;;15.10;99.90;;;13.83;100.00;100729.38;4940323;28;20041;-83
2021/10/20 02:27:39;;;;;;;23.67;11.90;;;15.10;99.90;;;13.86;100.00;100774.16;4876153;28;20106;-84
2021/10/20 02:30:18;;;;;;;18.15;10.25;;;15.10;99.90;;;13.82;100.00;100763.84;4858485;28;20169;-84
2021/10/20 02:32:44;;;;;;;25.27;11.38;;;;;;;13.84;100.00;100731.06;4890955;28;20038;-84
2021/10/20 02:35:18;;;;;;;22.33;11.43;;;;;;;13.81;100.00;100728.59;4885301;28;20418;-84
2021/10/20 02:37:45;;;;;;;20.73;10.55;;;15.00;99.90;;;13.81;100.00;100720.66;4908517;28;20359;-85
2021/10/20 02:40:13;;;;;;;22.55;11.00;;;15.00;99.90;;;13.78;100.00;100707.63;4878871;28;20058;-84
2021/10/20 02:42:45;;;;;;;20.83;10.50;;;15.00;99.90;;;13.76;100.00;100698.94;4901279;28;20033;-85
2021/10/20 02:45:15;;;;;;;20.58;9.85;;;;;;;13.72;100.00;100694.75;4883066;28;20030;-84
2021/10/20 02:47:42;;;;;;;22.23;10.60;;;15.00;99.90;;;13.75;100.00;100684.81;4936015;28;20730;-84
2021/10/20 02:50:09;;;;;;;20.95;10.45;;;;;;;13.75;100.00;100668.94;4897715;28;20070;-86
2021/10/20 02:52:39;;;;;;;19.73;10.02;;;15.00;99.90;;;13.74;100.00;100667.25;4892061;28;20077;-83
2021/10/20 02:55:07;;;;;;;20.65;9.63;;;15.00;99.90;;;13.71;100.00;100671.88;4910623;28;20440;-83
2021/10/20 02:57:34;;;;;;;17.45;8.93;;;14.90;99.90;;;13.62;100.00;100653.91;4895075;28;20037;-83
2021/10/20 03:00:09;;;;;;;18.10;9.75;;;14.80;99.90;;;13.65;100.00;100657.25;4910849;28;20076;-84
2021/10/20 03:02:35;;;;;;;22.98;10.20;;;14.90;99.90;;;13.60;100.00;100638.13;4887701;28;20041;-84
2021/10/20 03:05:01;;;;;;;15.27;8.43;;;14.90;99.90;;;13.62;100.00;100628.31;4881374;28;20037;-84
2021/10/20 03:07:38;;;;;;;19.92;9.23;;;14.90;99.90;;;13.53;100.00;100611.19;4874402;28;20030;-84
2021/10/20 03:10:06;;;;;;;16.42;8.80;;;14.80;99.90;;;13.51;100.00;100620.19;4909845;28;20034;-84
2021/10/20 03:12:39;;;;;;;19.85;9.50;;;;;;;13.49;100.00;100614.13;4894550;28;20026;-84
2021/10/20 03:15:06;;;;;;;16.48;9.35;;;14.70;99.90;;;13.36;100.00;100598.16;4933131;28;20034;-84
2021/10/20 03:17:32;;;;;;;20.25;9.70;;;14.60;99.90;;;13.30;100.00;100582.66;4903631;28;20036;-84
2021/10/20 03:20:08;;;;;;;17.42;8.82;;;14.50;99.90;;;13.30;100.00;100575.59;4878138;28;20041;-83
2021/10/20 03:22:48;;;;;;;;;;;14.50;99.90;;;13.25;100.00;100576.75;4886146;28;20045;-84
2021/10/20 03:25:14;;;;;;;14.95;8.88;;;14.50;99.90;;;13.22;100.00;100575.16;4873254;28;19986;-83
2021/10/20 03:27:50;;;;;;;15.90;9.30;;;14.50;99.90;;;13.16;100.00;100569.41;4889871;28;20041;-83
2021/10/20 03:30:19;;;;;;;18.38;9.48;;;;;;;13.14;100.00;100566.84;4869147;28;20021;-85
2021/10/20 03:32:49;;;;;;;17.23;9.57;;;14.40;99.90;;;13.16;100.00;100572.88;4875398;28;20483;-84
2021/10/20 03:35:17;;;;;;;17.65;9.88;;;;;;;13.20;100.00;100550.59;4894491;28;20152;-84
2021/10/20 03:37:44;;;;;;;18.63;9.88;;;14.50;99.90;;;13.21;100.00;100552.28;4902619;28;20552;-84
2021/10/20 03:40:11;;;;;;;23.33;10.23;;;14.50;99.90;;;13.22;100.00;100538.16;4873361;28;20114;-83
2021/10/20 03:42:37;;;;;;;16.70;9.23;;;14.50;99.90;;;13.17;100.00;100519.03;4918153;28;20034;-83
2021/10/20 03:45:08;;;;;;;18.30;9.48;;;14.40;99.90;;;13.13;100.00;100528.09;4906773;28;20512;-84
2021/10/20 03:47:35;;;;;;;19.33;10.48;;;;;;;13.12;100.00;100531.72;4894057;28;20023;-84
2021/10/20 03:50:02;;;;;;;17.65;9.38;;;14.40;99.90;;;13.13;100.00;100542.19;4915723;28;20054;-84
2021/10/20 03:52:27;;;;;;;22.15;9.80;;;14.30;99.90;;;13.07;100.00;100526.69;4887293;28;20089;-82
2021/10/20 03:54:53;;;;;;;16.55;8.77;;;14.40;99.90;;;13.08;100.00;100525.75;4880762;28;20061;-83
2021/10/20 03:57:43;;;;;;;18.55;10.27;;;14.30;99.90;;;13.06;100.00;100516.22;4901817;28;20038;-84
2021/10/20 04:00:17;;;;;;;22.38;9.65;;;14.30;99.90;;;12.97;100.00;100522.91;4892367;28;20038;-83
2021/10/20 04:02:54;;;;;;;16.95;9.50;;;14.20;99.90;;;12.91;100.00;100515.34;4903952;28;20414;-83
2021/10/20 04:05:20;;;;;;;;;;;14.10;99.90;;;12.85;100.00;100503.34;4931080;28;20061;-83
2021/10/20 04:07:57;;;;;;;;;;;14.10;99.90;;;12.82;100.00;100495.59;4868659;28;19918;-83
2021/10/20 04:10:26;;;;;;;20.97;9.57;;;14.10;99.90;;;12.79;100.00;100489.66;4885521;28;20048;-84
2021/10/20 04:13:02;;;;;;;15.88;8.70;;;14.10;99.90;;;12.77;100.00;100486.25;4875007;28;20067;-85
2021/10/20 04:15:28;;;;;;;;;;;14.00;99.90;;;12.70;100.00;100488.41;4944115;28;20151;-83
2021/10/20 04:17:55;;;;;;;17.47;9.10;;;;;;;12.71;100.00;100487.47;4868045;28;19968;-84
2021/10/20 04:20:28;;;;;;;21.00;8.75;;;;;;;12.70;100.00;100477.84;4884129;28;20121;-84
2021/10/20 04:22:54;;;;;;;16.23;9.00;;;14.00;99.90;;;12.67;100.00;100472.72;4901989;28;20045;-84
2021/10/20 04:25:21;;;;;;;21.83;9.55;;;14.00;99.90;;;12.71;100.00;100492.75;4914628;28;20100;-84
2021/10/20 04:27:53;;;;;;;20.60;9.25;;;13.90;99.90;;;12.61;100.00;100467.81;4892716;28;20439;-84
2021/10/20 04:30:23;;;;;;;24.65;10.30;;;14.90;99.90;;;12.56;100.00;100452.25;4887139;28;20124;-83
2021/10/20 04:32:49;;;;;;;23.58;9.85;;;13.90;99.90;;;12.56;100.00;100457.53;4879278;28;20166;-82
2021/10/20 04:35:25;;;;;;;19.98;9.52;;;13.80;99.90;;;12.54;100.00;100448.00;4888261;28;20515;-83
2021/10/20 04:37:51;;;;;;;19.15;9.43;;;;;;;12.53;100.00;100441.88;4911796;28;20065;-84
2021/10/20 04:40:17;;;;;;;17.55;9.32;;;13.80;99.90;;;12.51;100.00;100446.38;4908404;28;20467;-83
2021/10/20 04:43:10;;;;;;;19.52;9.63;;;13.80;99.90;;;12.48;100.00;100436.00;4940082;28;20042;-84
2021/10/20 04:45:37;;;;;;;16.95;9.10;;;13.70;99.90;;;12.45;100.00;100446.75;4912804;28;20121;-84
2021/10/20 04:48:09;;;;;;;15.00;8.23;;;13.70;99.90;;;12.40;100.00;100444.38;4907727;28;20045;-83
2021/10/20 04:50:37;;;;;;;18.13;9.10;;;13.70;99.90;;;12.40;100.00;100472.59;4877366;28;20064;-84
2021/10/20 04:53:03;;;;;;;20.55;9.43;;;13.60;99.90;;;12.36;100.00;100428.81;4904427;28;20050;-83
2021/10/20 04:55:31;;;;;;;17.38;9.57;;;13.70;99.90;;;12.34;100.00;100423.63;4894520;28;20044;-83
2021/10/20 04:58:08;;;;;;;16.13;9.18;;;;;;;12.34;100.00;100436.81;4916623;28;20140;-86
2021/10/20 05:00:38;;;;;;;18.02;9.20;;;13.60;99.90;;;12.30;100.00;100415.00;4858813;28;20023;-83
2021/10/20 05:03:07;;;;;;;15.75;8.65;;;;;;;12.28;100.00;100408.13;4861671;28;20051;-84
2021/10/20 05:05:33;;;;;;;25.13;9.75;;;13.60;99.90;;;12.29;100.00;100409.84;4910668;28;20434;-84
2021/10/20 05:07:59;;;;;;;20.58;9.45;;;13.60;99.90;;;12.25;100.00;100395.97;4907751;28;20048;-84
2021/10/20 05:10:27;;;;;;;20.20;9.20;;;13.50;99.90;;;12.19;100.00;100398.13;4889221;28;20060;-85
2021/10/20 05:13:02;;;;;;;19.95;8.88;;;13.50;99.90;;;12.19;100.00;100377.00;4928385;28;20432;-86
2021/10/20 05:15:28;;;;;;;17.00;9.45;;;13.50;99.90;;;12.20;100.00;100368.13;4911094;28;20613;-84
2021/10/20 05:17:54;;;;;;;17.60;9.02;;;13.50;99.90;;;12.13;100.00;100351.81;4896368;28;21202;-83
2021/10/20 05:20:22;;;;;;;16.58;9.13;;;13.40;99.90;;;12.10;100.00;100347.56;4931222;28;20026;-83
2021/10/20 05:22:50;;;;;;;18.95;9.18;;;13.40;99.90;;;12.13;100.00;100354.44;4901924;28;20069;-83
2021/10/20 05:25:17;;;;;;;16.70;9.02;;;13.40;99.90;;;12.15;100.00;100349.09;4893052;28;20042;-83
2021/10/20 05:27:44;;;;;;;16.90;8.85;;;13.40;99.90;;;12.13;100.00;100343.03;4881843;28;20039;-83
2021/10/20 05:30:19;;;;;;;16.30;8.55;;;13.40;99.90;;;12.06;100.00;100326.72;4887136;28;20509;-84
2021/10/20 05:32:49;;;;;;;17.10;8.73;;;;;;;12.05;100.00;100320.59;4881580;28;20065;-86
2021/10/20 05:35:42;;;;;;;18.98;9.15;;;13.40;99.90;;;12.07;100.00;100312.56;4839364;28;20050;-83
2021/10/20 05:38:08;;;;;;;19.63;8.98;;;13.50;99.90;;;12.19;100.00;100311.00;4849712;28;20042;-83
2021/10/20 05:40:34;;;;;;;17.17;8.70;;;13.50;99.90;;;12.15;100.00;100302.41;4852997;28;20085;-83
2021/10/20 05:43:07;;;;;;;15.13;7.93;;;13.50;99.90;;;12.14;100.00;100295.47;4862874;28;20078;-84
2021/10/20 05:45:33;;;;;;;16.63;7.65;;;;;;;12.14;100.00;100291.94;4815191;28;20513;-83
2021/10/20 05:47:59;;;;;;;16.90;8.63;;;13.50;99.90;;;12.15;100.00;100286.59;4885076;28;22060;-83
2021/10/20 05:50:25;;;;;;;21.05;8.50;;;13.50;99.90;;;12.22;100.00;100292.34;4894133;28;20092;-85
2021/10/20 05:52:58;;;;;;;17.05;8.68;;;13.50;99.90;;;12.18;100.00;100277.63;4902847;28;20079;-83
2021/10/20 05:55:24;;;;;;;17.23;7.80;;;13.50;99.90;;;12.19;100.00;100274.91;4914051;28;20112;-84
2021/10/20 05:57:50;;;;;;;13.23;7.88;;;13.50;99.90;;;12.19;100.00;100276.69;4884668;28;20160;-85
2021/10/20 06:00:16;;;;;;;25.52;8.13;;;13.60;99.90;;;12.29;100.00;100277.84;4870894;28;20082;-83
2021/10/20 06:02:42;;;;;;;14.20;7.45;;;13.60;99.90;;;12.39;100.00;100293.97;4855534;28;20525;-84
2021/10/20 06:05:18;;;;;;;16.00;8.18;;;13.60;99.90;;;12.33;100.00;100276.69;4917527;28;20083;-84
2021/10/20 06:07:45;;;;;;;12.82;7.50;;;13.60;99.90;;;12.33;100.00;100266.13;4874665;28;20053;-82
2021/10/20 06:10:16;;;;;;;15.82;8.40;;;13.60;99.90;;;12.38;100.00;100260.59;4904434;28;20030;-83
2021/10/20 06:12:46;;;;;;;12.75;7.55;;;;;;;12.42;100.00;100260.31;4916595;28;20061;-83
2021/10/20 06:15:14;;;;;;;12.82;7.55;;;13.70;99.90;;;12.38;100.00;100256.16;4890936;28;20064;-83
2021/10/20 06:17:45;;;;;;;14.77;7.60;;;;;;;12.43;100.00;100264.63;4918374;28;20046;-83
2021/10/20 06:20:12;;;;;;;12.65;7.07;;;;;;;12.45;100.00;100270.66;4908081;28;20327;-85
2021/10/20 06:22:41;;;;;;;15.00;7.40;;;13.80;99.90;;;12.54;100.00;100271.06;4933865;28;20549;-83
2021/10/20 06:25:12;;;;;;;11.45;7.00;;;13.80;99.90;;;12.63;100.00;100273.13;4889902;28;20133;-86
2021/10/20 06:27:41;;;;;;;12.05;6.75;;;13.90;99.90;;;12.69;100.00;100273.56;4878904;28;20093;-83
2021/10/20 06:30:07;;;;;;;11.25;6.18;;;14.00;99.90;;;12.79;100.00;100286.22;4910602;28;20061;-82
2021/10/20 06:32:34;;;;;;;11.48;6.13;;;14.00;99.90;;;12.88;100.00;100288.28;4910571;28;20127;-83
2021/10/20 06:35:06;;;;;;;11.50;6.57;;;14.10;99.90;;;13.02;100.00;100290.03;4925237;28;20081;-83
2021/10/20 06:37:32;;;;;;;12.50;6.38;;;14.20;99.90;;;13.04;100.00;100281.06;4888301;28;20111;-83
2021/10/20 06:40:00;;;;;;;11.27;6.35;;;14.20;99.90;;;13.08;100.00;100274.63;4913017;28;20282;-84
2021/10/20 06:42:30;;;;;;;12.32;6.32;;;14.30;99.90;;;13.08;100.00;100260.56;4912153;28;20400;-82
2021/10/20 06:44:56;;;;;;;13.73;6.13;;;14.20;99.90;;;13.00;100.00;100273.44;4903395;28;20041;-83
2021/10/20 06:47:24;;;;;;;16.48;6.10;;;14.20;99.90;;;13.04;100.00;100286.34;4953331;28;20466;-83
2021/10/20 06:49:52;;;;;;;10.90;5.80;;;14.30;99.90;;;13.33;100.00;100292.44;4976567;28;20039;-83
2021/10/20 06:52:18;;;;;;;10.80;5.75;;;14.50;99.90;;;13.47;100.00;100278.31;4891436;28;20061;-83
2021/10/20 06:54:53;;;;;;;8.93;5.47;;;14.60;99.90;;;13.50;100.00;100274.63;4905240;28;20498;-83
2021/10/20 06:57:19;;;;;;;9.05;5.55;;;14.50;99.90;;;13.28;100.00;100260.19;4900495;28;20614;-83
2021/10/20 06:59:45;;;;;;;11.15;5.63;;;14.50;99.90;;;13.20;100.00;100245.72;4860964;28;24811;-82
2021/10/20 07:02:23;;;;;;;9.77;5.40;;;14.40;99.90;;;13.25;100.00;100262.13;4910756;28;20164;-83
2021/10/20 07:04:49;;;;;;;8.13;4.97;;;14.50;99.90;;;13.57;100.00;100301.53;4918411;28;20121;-83
2021/10/20 07:07:15;;;;;;;10.15;5.22;;;14.90;99.90;;;13.89;100.00;100309.97;4900180;28;20044;-83
2021/10/20 07:09:50;;;;;;;11.27;5.03;;;15.10;99.90;;;14.25;100.00;100322.50;4906857;28;20589;-83
2021/10/20 07:12:15;;;;;;;9.45;4.95;;;15.30;99.90;;;14.40;98.70;100310.00;4877392;28;20031;-82
2021/10/20 07:14:42;;;;;;;8.38;4.97;;;15.40;99.90;;;14.54;97.39;100309.91;4903786;28;20088;-83
2021/10/20 07:17:19;;;;;;;7.05;4.45;;;;;;;14.96;95.23;100338.81;4891333;28;20051;-83
2021/10/20 07:19:45;;;;;;;9.85;4.53;;;15.90;99.90;;;14.96;93.81;100322.91;4902211;28;20448;-84
2021/10/20 07:22:20;;;;;;;10.57;4.40;;;;;;;14.69;95.07;100297.41;4894856;28;20157;-82
2021/10/20 07:24:46;;;;;;;8.77;5.38;;;15.70;99.90;;;14.60;94.92;100295.44;4901879;28;20031;-82
2021/10/20 07:27:12;;;;;;;8.02;4.60;;;15.60;99.90;;;14.48;95.68;100273.25;4908311;28;20032;-84
2021/10/20 07:29:40;;;;;;;9.35;5.25;;;;;;;14.40;96.29;100259.69;4871360;28;20071;-82
2021/10/20 07:32:14;;;;;;;9.23;4.47;;;15.50;99.90;;;14.31;95.97;100247.09;4871240;28;20043;-84
2021/10/20 07:34:40;;;;;;;8.13;4.82;;;15.50;99.90;;;14.34;96.20;100246.84;4858202;28;20457;-84
2021/10/20 07:37:06;;;;;;;8.65;5.03;;;15.30;99.90;;;14.32;95.93;100240.84;4868918;28;20635;-82
2021/10/20 07:39:38;;;;;;;10.90;4.38;;;15.50;99.90;;;14.26;95.73;100222.75;4850097;28;20523;-83
2021/10/20 07:42:04;;;;;;;8.70;4.30;;;15.40;99.90;;;14.25;96.54;100224.53;4901698;28;20661;-83
2021/10/20 07:44:31;;;;;;;7.32;4.30;;;15.40;99.90;;;14.25;96.09;100221.88;4904861;28;20078;-84
2021/10/20 07:46:57;;;;;;;10.98;4.97;;;15.50;99.90;;;14.27;95.97;100211.19;4906727;28;20471;-82
2021/10/20 07:49:23;;;;;;;9.05;4.90;;;15.40;99.90;;;14.26;95.62;100197.09;4886890;28;20039;-84
2021/10/20 07:51:56;;;;;;;9.60;4.60;;;15.40;99.90;;;14.21;96.54;100190.41;4889367;28;20030;-82
2021/10/20 07:54:24;;;;;;;8.00;4.80;;;15.30;99.90;;;14.11;96.86;100177.84;4893345;28;20031;-84
2021/10/20 07:57:01;;;;;;;6.85;4.43;;;15.20;99.90;;;14.16;96.32;100166.91;4889278;28;20052;-82
2021/10/20 07:59:27;;;;;;;8.15;4.65;;;15.30;99.90;;;14.12;96.77;100136.31;4914664;28;20042;-83
2021/10/20 08:01:53;;;;;;;9.40;4.72;;;15.30;99.90;;;14.11;97.08;100142.59;4892460;28;20042;-83
2021/10/20 08:04:27;;;;;;;15.88;6.00;;;;;;;14.07;97.11;100157.81;4898075;28;20498;-83
2021/10/20 08:06:53;;;;;;;8.30;5.03;;;15.30;99.90;;;14.16;96.42;100146.56;4906010;28;20113;-84
2021/10/20 08:09:19;;;;;;;9.75;5.07;;;15.30;99.90;;;14.21;96.26;100162.16;4894711;28;20065;-83
2021/10/20 08:11:45;;;;;;;7.97;4.85;;;15.30;99.90;;;14.18;96.71;100162.38;4921291;28;20026;-82
2021/10/20 08:14:11;;;;;;;7.38;4.63;;;15.30;99.90;;;14.20;95.84;100149.88;4956966;28;20055;-83
2021/10/20 08:16:44;;;;;;;7.68;4.40;;;15.40;99.90;;;14.18;96.89;100130.59;4928839;28;20390;-82
2021/10/20 08:19:11;;;;;;;9.88;4.95;;;;;;;14.18;96.47;100129.75;4931989;28;20810;-82
2021/10/20 08:21:37;;;;;;;7.10;4.53;;;15.40;99.90;;;14.14;96.65;100129.94;4895708;28;20042;-82
2021/10/20 08:24:11;;;;;;;9.93;5.13;;;15.30;99.90;;;14.25;96.57;100142.44;4903569;28;20050;-83
2021/10/20 08:26:37;;;;;;;9.68;5.10;;;15.40;99.90;;;14.36;95.97;100194.63;4900923;28;20107;-82
2021/10/20 08:29:03;;;;;;;9.45;4.93;;;15.60;99.90;;;14.66;95.27;100174.88;4910121;28;20028;-81
2021/10/20 08:31:29;;;;;;;7.78;4.47;;;;;;;14.80;93.92;100148.25;4915493;28;20105;-82
2021/10/20 08:33:55;;;;;;;14.23;4.70;;;15.80;99.90;;;14.88;93.05;100155.59;4936434;28;20102;-82
2021/10/20 08:36:29;;;;;;;8.93;4.75;;;15.90;99.90;;;14.83;93.22;100139.22;4868577;28;20046;-81
2021/10/20 08:38:54;;;;;;;7.63;4.72;;;15.80;99.90;;;14.72;93.19;100122.28;4921024;28;20033;-81
2021/10/20 08:41:21;;;;;;;10.23;5.00;;;15.80;99.90;;;14.66;93.09;100101.53;4975561;28;20043;-84
2021/10/20 08:43:57;;;;;;;10.77;4.65;;;15.80;99.90;;;14.60;93.34;100072.00;4928977;28;20039;-82
2021/10/20 08:46:25;;;;;;;8.20;4.97;;;15.70;99.90;;;14.56;94.14;100059.00;4933387;28;20137;-82
2021/10/20 08:48:56;;;;;;;7.18;4.43;;;15.60;99.90;;;14.53;94.21;100055.69;4909341;28;20039;-81
2021/10/20 08:51:23;;;;;;;8.23;4.75;;;15.70;99.90;;;14.54;93.62;100044.97;4915641;28;20040;-82
2021/10/20 08:53:52;;;;;;;8.63;4.22;;;15.70;99.90;;;14.57;94.07;100036.81;4888957;28;20452;-81
2021/10/20 08:56:18;;;;;;;8.20;4.93;;;15.70;99.90;;;14.55;94.18;100022.00;4890098;28;20069;-81
2021/10/20 08:58:49;;;;;;;7.35;4.53;;;15.70;99.90;;;14.63;93.14;99997.59;4903064;28;20026;-82
2021/10/20 09:01:26;;;;;;;7.35;4.78;;;15.80;99.90;;;14.67;93.56;100001.72;4909195;28;21626;-82
2021/10/20 09:03:53;;;;;;;12.43;5.03;;;15.80;99.90;;;14.66;92.65;100018.56;4916613;28;20135;-82
2021/10/20 09:06:34;;;;;;;9.77;4.95;;;15.80;99.90;;;14.72;92.07;100018.94;4917523;28;20549;-82
2021/10/20 09:10:13;;;;;;;8.68;4.93;;;15.90;99.90;;;14.73;92.26;100025.13;4902368;28;20037;-82
2021/10/20 09:13:21;;;;;;;9.57;4.40;;;15.90;99.90;;;14.77;91.91;100000.91;4939093;28;20816;-82
2021/10/20 09:16:28;;;;;;;7.90;4.25;;;15.90;99.90;;;14.85;91.20;99991.53;4892012;28;20372;-82
2021/10/20 09:20:00;;;;;;;12.88;5.07;;;16.00;99.90;;;14.89;91.37;99979.72;4920541;28;20128;-81
2021/10/20 09:23:42;;;;;;;7.43;4.43;;;16.10;99.90;;;14.96;90.84;99954.44;4900663;28;20039;-82
2021/10/20 09:26:33;;;;;;;7.63;4.57;;;16.10;99.90;;;15.08;89.23;99942.88;4917796;28;20029;-82
2021/10/20 09:30:18;;;;;;;15.25;4.72;;;16.20;99.90;;;15.03;89.56;99949.50;4942485;28;20533;-80
2021/10/20 09:33:53;;;;;;;9.10;4.80;;;16.10;99.90;;;14.97;90.08;99933.13;4940667;28;20043;-80
2021/10/20 09:37:21;;;;;;;8.93;5.40;;;16.10;99.90;;;15.03;90.18;99937.09;4939403;28;20047;-81
2021/10/20 09:40:33;;;;;;;8.95;5.70;;;16.20;99.90;;;15.05;89.86;99923.72;4946267;28;20046;-80
2021/10/20 09:44:03;;;;;;;9.50;4.95;;;16.20;99.90;;;15.15;88.87;99906.13;4915637;28;20073;-81
2021/10/20 09:47:17;;;;;;;9.27;5.10;;;16.40;99.90;;;15.27;88.53;99893.69;4922881;28;20505;-81
2021/10/20 09:50:56;;;;;;;9.70;5.38;;;16.40;99.90;;;15.34;87.64;99900.22;4937002;28;20034;-80
2021/10/20 09:54:44;;;;;;;15.15;5.78;;;16.50;99.90;;;15.43;88.17;99918.03;4929074;28;20081;-81
2021/10/20 09:58:49;;;;;;;9.80;5.85;;;16.50;99.90;;;15.42;85.69;99878.38;4917813;28;20390;-80
2021/10/20 10:01:43;;;;;;;10.77;5.95;;;16.50;99.90;;;15.36;86.48;99854.03;4931642;28;20038;-80
2021/10/20 10:04:46;;;;;;;12.15;6.95;;;16.60;99.90;;;15.45;86.57;99862.22;4906686;28;20100;-80
2021/10/20 10:07:49;;;;;;;10.25;6.13;;;16.60;99.90;;;15.52;85.32;99864.22;4944069;28;21381;-80
2021/10/20 10:17:32;;;;;;;16.98;6.95;;;16.90;99.90;;;15.84;84.38;100755.44;4931800;28;20050;-80
2021/10/20 10:20:35;;;;;;;11.75;6.70;;;17.00;99.90;;;16.00;82.52;100487.03;4941586;28;20029;-80
2021/10/20 10:23:35;;;;;;;11.90;7.30;;;17.20;99.90;;;16.11;81.54;100439.31;4923222;28;20283;-82
2021/10/20 10:26:29;;;;;;;13.18;7.20;;;17.20;99.90;;;16.14;80.66;100322.19;4952611;28;20099;-81
2021/10/20 10:29:32;;;;;;;10.23;6.88;;;17.30;99.90;;;16.23;80.49;100192.28;4934580;28;20030;-81
2021/10/20 10:32:27;;;;;;;14.55;7.10;;;17.40;99.90;;;16.35;80.78;100164.78;4944676;28;20039;-80
2021/10/20 10:35:23;;;;;;;11.77;6.82;;;17.50;99.90;;;16.40;80.10;100142.16;4928509;28;20553;-80
2021/10/20 10:38:06;;;;;;;11.20;6.88;;;17.50;99.90;;;16.44;78.82;100110.88;4937859;28;20046;-80
2021/10/20 10:40:32;;;;;;;11.88;6.88;;;17.50;99.90;;;16.43;79.42;100103.88;4942579;28;20100;-80
2021/10/20 10:43:11;;;;;;;15.02;7.97;;;17.50;99.90;;;16.51;78.65;100101.44;4952298;28;20029;-80
2021/10/20 10:45:38;;;;;;;14.07;6.78;;;17.60;99.90;;;16.61;78.80;100102.38;4951165;28;20069;-79
2021/10/20 10:48:07;;;;;;;11.80;6.65;;;17.70;99.90;;;16.62;78.74;100108.53;4944121;28;20042;-80
2021/10/20 10:50:49;;;;;;;12.23;6.95;;;17.70;99.90;;;16.69;77.66;100098.25;4936024;28;20050;-80